sensor_id;sensor_type;location;lat;lon;timestamp;P1;durP1;ratioP1;P2;durP2;ratioP2
20000;SDS011;10161;41.188;-8.642;2022-10-16T00:02:25;2.10;;;2.00;;
20000;SDS011;10161;41.188;-8.642;2022-10-16T00:04:54;3.97;;;2.70;;
20000;SDS011;10161;41.188;-8.642;2022-10-16T00:07:20;3.00;;;2.80;;
20000;SDS011;10161;41.188;-8.642;2022-10-16T00:09:47;2.60;;;2.40;;
20000;SDS011;10161;41.188;-8.642;2022-10-16T00:12:14;2.77;;;2.57;;
20000;SDS011;10161;41.188;-8.642;2022-10-16T00:14:41;2.40;;;2.30;;
20000;SDS011;10161;41.188;-8.642;2022-10-16T00:17:09;2.50;;;2.30;;
20000;SDS011;10161;41.188;-8.642;2022-10-16T00:19:35;2.70;;;2.50;;
20000;SDS011;10161;41.188;-8.642;2022-10-16T00:22:04;2.93;;;2.63;;
20000;SDS011;10161;41.188;-8.642;2022-10-16T00:24:30;2.63;;;2.50;;
20000;SDS011;10161;41.188;-8.642;2022-10-16T00:26:57;4.73;;;3.30;;
20000;SDS011;10161;41.188;-8.642;2022-10-16T00:29:25;5.43;;;4.10;;
20000;SDS011;10161;41.188;-8.642;2022-10-16T00:31:51;5.27;;;3.60;;
20000;SDS011;10161;41.188;-8.642;2022-10-16T00:34:18;4.40;;;4.00;;
20000;SDS011;10161;41.188;-8.642;2022-10-16T00:36:45;3.57;;;3.37;;
20000;SDS011;10161;41.188;-8.642;2022-10-16T00:39:14;4.67;;;4.27;;
20000;SDS011;10161;41.188;-8.642;2022-10-16T00:41:40;4.70;;;4.30;;
20000;SDS011;10161;41.188;-8.642;2022-10-16T00:47:13;5.70;;;4.50;;
20000;SDS011;10161;41.188;-8.642;2022-10-16T00:49:44;5.03;;;4.60;;
20000;SDS011;10161;41.188;-8.642;2022-10-16T00:52:11;4.80;;;4.40;;
20000;SDS011;10161;41.188;-8.642;2022-10-16T00:54:40;4.40;;;4.10;;
20000;SDS011;10161;41.188;-8.642;2022-10-16T00:57:07;4.73;;;4.33;;
20000;SDS011;10161;41.188;-8.642;2022-10-16T00:59:35;5.53;;;5.00;;
20000;SDS011;10161;41.188;-8.642;2022-10-16T01:02:04;6.97;;;5.10;;
20000;SDS011;10161;41.188;-8.642;2022-10-16T01:04:32;4.80;;;4.50;;
20000;SDS011;10161;41.188;-8.642;2022-10-16T01:07:03;5.40;;;5.00;;
20000;SDS011;10161;41.188;-8.642;2022-10-16T01:09:34;6.10;;;5.60;;
20000;SDS011;10161;41.188;-8.642;2022-10-16T01:12:06;5.07;;;4.67;;
20000;SDS011;10161;41.188;-8.642;2022-10-16T01:14:39;5.10;;;4.70;;
20000;SDS011;10161;41.188;-8.642;2022-10-16T01:17:10;5.77;;;5.13;;
20000;SDS011;10161;41.188;-8.642;2022-10-16T01:19:45;6.13;;;5.63;;
20000;SDS011;10161;41.188;-8.642;2022-10-16T01:22:20;6.73;;;6.13;;
20000;SDS011;10161;41.188;-8.642;2022-10-16T01:24:48;5.87;;;5.23;;
20000;SDS011;10161;41.188;-8.642;2022-10-16T01:27:18;5.53;;;5.13;;
20000;SDS011;10161;41.188;-8.642;2022-10-16T01:29:49;5.53;;;5.03;;
20000;SDS011;10161;41.188;-8.642;2022-10-16T01:32:22;6.03;;;5.20;;
20000;SDS011;10161;41.188;-8.642;2022-10-16T01:34:54;6.53;;;5.93;;
20000;SDS011;10161;41.188;-8.642;2022-10-16T01:37:28;6.03;;;5.43;;
20000;SDS011;10161;41.188;-8.642;2022-10-16T01:39:58;6.40;;;5.80;;
20000;SDS011;10161;41.188;-8.642;2022-10-16T01:42:30;6.20;;;5.70;;
20000;SDS011;10161;41.188;-8.642;2022-10-16T01:45:02;5.00;;;4.60;;
20000;SDS011;10161;41.188;-8.642;2022-10-16T01:47:31;7.10;;;6.50;;
20000;SDS011;10161;41.188;-8.642;2022-10-16T01:49:59;5.63;;;5.13;;
20000;SDS011;10161;41.188;-8.642;2022-10-16T01:52:26;6.77;;;6.27;;
20000;SDS011;10161;41.188;-8.642;2022-10-16T01:54:55;6.90;;;6.20;;
20000;SDS011;10161;41.188;-8.642;2022-10-16T01:57:23;6.30;;;5.70;;
20000;SDS011;10161;41.188;-8.642;2022-10-16T01:59:53;6.10;;;5.50;;
20000;SDS011;10161;41.188;-8.642;2022-10-16T02:02:23;6.13;;;5.63;;
20000;SDS011;10161;41.188;-8.642;2022-10-16T02:04:55;5.53;;;5.03;;
20000;SDS011;10161;41.188;-8.642;2022-10-16T02:07:24;5.30;;;4.90;;
20000;SDS011;10161;41.188;-8.642;2022-10-16T02:09:51;5.10;;;4.70;;
20000;SDS011;10161;41.188;-8.642;2022-10-16T02:12:19;5.90;;;5.10;;
20000;SDS011;10161;41.188;-8.642;2022-10-16T02:14:50;5.73;;;5.23;;
20000;SDS011;10161;41.188;-8.642;2022-10-16T02:17:19;5.67;;;5.17;;
20000;SDS011;10161;41.188;-8.642;2022-10-16T02:19:47;5.27;;;4.87;;
20000;SDS011;10161;41.188;-8.642;2022-10-16T02:22:16;6.30;;;4.30;;
20000;SDS011;10161;41.188;-8.642;2022-10-16T02:24:49;4.50;;;4.20;;
20000;SDS011;10161;41.188;-8.642;2022-10-16T02:27:19;4.30;;;4.00;;
20000;SDS011;10161;41.188;-8.642;2022-10-16T02:29:52;3.93;;;3.63;;
20000;SDS011;10161;41.188;-8.642;2022-10-16T02:32:26;4.50;;;4.10;;
20000;SDS011;10161;41.188;-8.642;2022-10-16T02:34:56;3.70;;;3.40;;
20000;SDS011;10161;41.188;-8.642;2022-10-16T02:37:25;4.00;;;3.70;;
20000;SDS011;10161;41.188;-8.642;2022-10-16T02:39:52;4.53;;;4.10;;
20000;SDS011;10161;41.188;-8.642;2022-10-16T02:42:20;3.83;;;3.53;;
20000;SDS011;10161;41.188;-8.642;2022-10-16T02:44:47;3.47;;;3.27;;
20000;SDS011;10161;41.188;-8.642;2022-10-16T02:47:14;3.70;;;3.40;;
20000;SDS011;10161;41.188;-8.642;2022-10-16T02:49:42;3.63;;;3.33;;
20000;SDS011;10161;41.188;-8.642;2022-10-16T02:52:09;3.63;;;3.43;;
20000;SDS011;10161;41.188;-8.642;2022-10-16T02:54:36;3.30;;;3.00;;
20000;SDS011;10161;41.188;-8.642;2022-10-16T02:57:03;3.43;;;3.13;;
20000;SDS011;10161;41.188;-8.642;2022-10-16T02:59:30;3.10;;;2.90;;
20000;SDS011;10161;41.188;-8.642;2022-10-16T03:01:57;3.10;;;2.90;;
20000;SDS011;10161;41.188;-8.642;2022-10-16T03:04:23;3.30;;;3.00;;
20000;SDS011;10161;41.188;-8.642;2022-10-16T03:06:52;3.13;;;2.90;;
20000;SDS011;10161;41.188;-8.642;2022-10-16T03:09:18;3.53;;;3.27;;
20000;SDS011;10161;41.188;-8.642;2022-10-16T03:11:45;3.37;;;3.17;;
20000;SDS011;10161;41.188;-8.642;2022-10-16T03:14:12;3.27;;;3.07;;
20000;SDS011;10161;41.188;-8.642;2022-10-16T03:16:39;3.80;;;3.50;;
20000;SDS011;10161;41.188;-8.642;2022-10-16T03:19:06;5.73;;;5.10;;
20000;SDS011;10161;41.188;-8.642;2022-10-16T03:21:33;4.90;;;4.30;;
20000;SDS011;10161;41.188;-8.642;2022-10-16T03:24:02;6.40;;;5.13;;
20000;SDS011;10161;41.188;-8.642;2022-10-16T03:26:29;5.60;;;5.10;;
20000;SDS011;10161;41.188;-8.642;2022-10-16T03:28:56;5.30;;;4.53;;
20000;SDS011;10161;41.188;-8.642;2022-10-16T03:31:22;5.73;;;5.23;;
20000;SDS011;10161;41.188;-8.642;2022-10-16T03:33:49;4.80;;;4.30;;
20000;SDS011;10161;41.188;-8.642;2022-10-16T03:36:16;6.10;;;5.60;;
20000;SDS011;10161;41.188;-8.642;2022-10-16T03:38:43;5.20;;;4.70;;
20000;SDS011;10161;41.188;-8.642;2022-10-16T03:41:12;5.77;;;5.17;;
20000;SDS011;10161;41.188;-8.642;2022-10-16T03:43:39;6.17;;;5.00;;
20000;SDS011;10161;41.188;-8.642;2022-10-16T03:46:05;5.50;;;4.27;;
20000;SDS011;10161;41.188;-8.642;2022-10-16T03:48:32;4.73;;;4.30;;
20000;SDS011;10161;41.188;-8.642;2022-10-16T03:50:59;5.20;;;4.67;;
20000;SDS011;10161;41.188;-8.642;2022-10-16T03:53:26;7.13;;;3.93;;
20000;SDS011;10161;41.188;-8.642;2022-10-16T03:55:53;4.07;;;3.60;;
20000;SDS011;10161;41.188;-8.642;2022-10-16T03:58:22;3.90;;;3.60;;
20000;SDS011;10161;41.188;-8.642;2022-10-16T04:00:49;4.40;;;3.70;;
20000;SDS011;10161;41.188;-8.642;2022-10-16T04:03:16;3.90;;;3.60;;
20000;SDS011;10161;41.188;-8.642;2022-10-16T04:05:44;5.03;;;4.13;;
20000;SDS011;10161;41.188;-8.642;2022-10-16T04:08:11;4.10;;;3.70;;
20000;SDS011;10161;41.188;-8.642;2022-10-16T04:10:38;4.23;;;3.83;;
20000;SDS011;10161;41.188;-8.642;2022-10-16T04:13:05;4.43;;;4.00;;
20000;SDS011;10161;41.188;-8.642;2022-10-16T04:15:33;3.50;;;3.20;;
20000;SDS011;10161;41.188;-8.642;2022-10-16T04:18:00;3.70;;;3.40;;
20000;SDS011;10161;41.188;-8.642;2022-10-16T04:20:27;3.73;;;3.53;;
20000;SDS011;10161;41.188;-8.642;2022-10-16T04:22:55;3.47;;;3.17;;
20000;SDS011;10161;41.188;-8.642;2022-10-16T04:25:22;3.47;;;3.20;;
20000;SDS011;10161;41.188;-8.642;2022-10-16T04:27:48;3.40;;;3.10;;
20000;SDS011;10161;41.188;-8.642;2022-10-16T04:30:15;2.67;;;2.47;;
20000;SDS011;10161;41.188;-8.642;2022-10-16T04:32:47;2.43;;;2.10;;
20000;SDS011;10161;41.188;-8.642;2022-10-16T04:35:14;2.23;;;2.10;;
20000;SDS011;10161;41.188;-8.642;2022-10-16T04:37:41;2.57;;;2.30;;
20000;SDS011;10161;41.188;-8.642;2022-10-16T04:40:08;2.20;;;2.10;;
20000;SDS011;10161;41.188;-8.642;2022-10-16T04:42:36;2.33;;;2.23;;
20000;SDS011;10161;41.188;-8.642;2022-10-16T04:45:03;2.30;;;2.10;;
20000;SDS011;10161;41.188;-8.642;2022-10-16T04:47:31;1.60;;;1.50;;
20000;SDS011;10161;41.188;-8.642;2022-10-16T04:49:59;1.90;;;1.80;;
20000;SDS011;10161;41.188;-8.642;2022-10-16T04:52:27;2.17;;;1.87;;
20000;SDS011;10161;41.188;-8.642;2022-10-16T04:54:54;1.67;;;1.57;;
20000;SDS011;10161;41.188;-8.642;2022-10-16T04:57:25;1.73;;;1.63;;
20000;SDS011;10161;41.188;-8.642;2022-10-16T04:59:53;1.97;;;1.87;;
20000;SDS011;10161;41.188;-8.642;2022-10-16T05:02:19;1.73;;;1.63;;
20000;SDS011;10161;41.188;-8.642;2022-10-16T05:04:46;2.13;;;1.70;;
20000;SDS011;10161;41.188;-8.642;2022-10-16T05:07:15;1.70;;;1.60;;
20000;SDS011;10161;41.188;-8.642;2022-10-16T05:09:42;1.80;;;1.70;;
20000;SDS011;10161;41.188;-8.642;2022-10-16T05:12:09;1.80;;;1.60;;
20000;SDS011;10161;41.188;-8.642;2022-10-16T05:14:35;1.80;;;1.67;;
20000;SDS011;10161;41.188;-8.642;2022-10-16T05:17:02;2.47;;;2.27;;
20000;SDS011;10161;41.188;-8.642;2022-10-16T05:19:29;2.40;;;2.00;;
20000;SDS011;10161;41.188;-8.642;2022-10-16T05:21:56;3.17;;;1.90;;
20000;SDS011;10161;41.188;-8.642;2022-10-16T05:24:25;2.13;;;1.93;;
20000;SDS011;10161;41.188;-8.642;2022-10-16T05:26:52;3.03;;;2.50;;
20000;SDS011;10161;41.188;-8.642;2022-10-16T05:29:18;2.20;;;2.10;;
20000;SDS011;10161;41.188;-8.642;2022-10-16T05:31:46;3.20;;;2.67;;
20000;SDS011;10161;41.188;-8.642;2022-10-16T05:34:12;3.50;;;3.00;;
20000;SDS011;10161;41.188;-8.642;2022-10-16T05:36:39;2.97;;;2.77;;
20000;SDS011;10161;41.188;-8.642;2022-10-16T05:39:06;3.40;;;2.87;;
20000;SDS011;10161;41.188;-8.642;2022-10-16T05:41:35;2.90;;;2.70;;
20000;SDS011;10161;41.188;-8.642;2022-10-16T05:44:03;2.57;;;2.43;;
20000;SDS011;10161;41.188;-8.642;2022-10-16T05:46:31;3.03;;;2.60;;
20000;SDS011;10161;41.188;-8.642;2022-10-16T05:48:58;2.80;;;2.60;;
20000;SDS011;10161;41.188;-8.642;2022-10-16T05:51:25;3.80;;;3.00;;
20000;SDS011;10161;41.188;-8.642;2022-10-16T05:53:52;3.00;;;2.20;;
20000;SDS011;10161;41.188;-8.642;2022-10-16T05:56:19;6.30;;;2.87;;
20000;SDS011;10161;41.188;-8.642;2022-10-16T05:58:47;3.00;;;2.73;;
20000;SDS011;10161;41.188;-8.642;2022-10-16T06:01:15;4.47;;;2.43;;
20000;SDS011;10161;41.188;-8.642;2022-10-16T06:03:43;4.00;;;2.17;;
20000;SDS011;10161;41.188;-8.642;2022-10-16T06:06:10;3.40;;;2.10;;
20000;SDS011;10161;41.188;-8.642;2022-10-16T06:08:38;2.63;;;2.00;;
20000;SDS011;10161;41.188;-8.642;2022-10-16T06:11:06;2.30;;;1.90;;
20000;SDS011;10161;41.188;-8.642;2022-10-16T06:13:33;2.17;;;1.97;;
20000;SDS011;10161;41.188;-8.642;2022-10-16T06:16:02;2.40;;;2.20;;
20000;SDS011;10161;41.188;-8.642;2022-10-16T06:18:29;1.60;;;1.50;;
20000;SDS011;10161;41.188;-8.642;2022-10-16T06:20:57;1.90;;;1.80;;
20000;SDS011;10161;41.188;-8.642;2022-10-16T06:23:24;1.83;;;1.60;;
20000;SDS011;10161;41.188;-8.642;2022-10-16T06:25:51;2.17;;;1.53;;
20000;SDS011;10161;41.188;-8.642;2022-10-16T06:28:18;1.30;;;1.20;;
20000;SDS011;10161;41.188;-8.642;2022-10-16T06:30:47;1.47;;;1.37;;
20000;SDS011;10161;41.188;-8.642;2022-10-16T06:33:15;1.20;;;1.10;;
20000;SDS011;10161;41.188;-8.642;2022-10-16T06:35:42;1.20;;;1.10;;
20000;SDS011;10161;41.188;-8.642;2022-10-16T06:38:09;3.47;;;1.30;;
20000;SDS011;10161;41.188;-8.642;2022-10-16T06:40:36;1.20;;;1.10;;
20000;SDS011;10161;41.188;-8.642;2022-10-16T06:43:03;1.17;;;1.00;;
20000;SDS011;10161;41.188;-8.642;2022-10-16T06:45:37;2.10;;;1.20;;
20000;SDS011;10161;41.188;-8.642;2022-10-16T06:48:04;1.80;;;1.60;;
20000;SDS011;10161;41.188;-8.642;2022-10-16T06:50:33;1.47;;;1.37;;
20000;SDS011;10161;41.188;-8.642;2022-10-16T06:53:00;1.40;;;1.30;;
20000;SDS011;10161;41.188;-8.642;2022-10-16T06:55:27;1.20;;;1.10;;
20000;SDS011;10161;41.188;-8.642;2022-10-16T06:57:54;1.40;;;1.20;;
20000;SDS011;10161;41.188;-8.642;2022-10-16T07:00:21;2.27;;;1.40;;
20000;SDS011;10161;41.188;-8.642;2022-10-16T07:02:48;1.10;;;1.00;;
20000;SDS011;10161;41.188;-8.642;2022-10-16T07:05:15;1.33;;;1.17;;
20000;SDS011;10161;41.188;-8.642;2022-10-16T07:07:43;1.17;;;1.07;;
20000;SDS011;10161;41.188;-8.642;2022-10-16T07:10:10;1.67;;;0.90;;
20000;SDS011;10161;41.188;-8.642;2022-10-16T07:12:37;1.67;;;1.50;;
20000;SDS011;10161;41.188;-8.642;2022-10-16T07:15:04;1.37;;;1.27;;
20000;SDS011;10161;41.188;-8.642;2022-10-16T07:17:32;3.43;;;1.80;;
20000;SDS011;10161;41.188;-8.642;2022-10-16T07:19:59;2.10;;;1.70;;
20000;SDS011;10161;41.188;-8.642;2022-10-16T07:22:27;1.47;;;1.37;;
20000;SDS011;10161;41.188;-8.642;2022-10-16T07:24:56;1.50;;;1.33;;
20000;SDS011;10161;41.188;-8.642;2022-10-16T07:27:23;1.73;;;1.10;;
20000;SDS011;10161;41.188;-8.642;2022-10-16T07:29:50;2.60;;;1.67;;
20000;SDS011;10161;41.188;-8.642;2022-10-16T07:32:17;1.77;;;1.50;;
20000;SDS011;10161;41.188;-8.642;2022-10-16T07:34:43;1.57;;;1.40;;
20000;SDS011;10161;41.188;-8.642;2022-10-16T07:37:10;1.47;;;1.37;;
20000;SDS011;10161;41.188;-8.642;2022-10-16T07:39:37;1.67;;;1.20;;
20000;SDS011;10161;41.188;-8.642;2022-10-16T07:42:06;1.30;;;1.20;;
20000;SDS011;10161;41.188;-8.642;2022-10-16T07:44:33;1.70;;;1.33;;
20000;SDS011;10161;41.188;-8.642;2022-10-16T07:47:00;1.93;;;1.40;;
20000;SDS011;10161;41.188;-8.642;2022-10-16T07:49:27;2.43;;;1.60;;
20000;SDS011;10161;41.188;-8.642;2022-10-16T07:51:53;1.93;;;1.33;;
20000;SDS011;10161;41.188;-8.642;2022-10-16T07:54:20;1.10;;;1.00;;
20000;SDS011;10161;41.188;-8.642;2022-10-16T07:56:47;1.70;;;1.40;;
20000;SDS011;10161;41.188;-8.642;2022-10-16T07:59:15;2.57;;;1.50;;
20000;SDS011;10161;41.188;-8.642;2022-10-16T08:01:43;1.70;;;1.17;;
20000;SDS011;10161;41.188;-8.642;2022-10-16T08:04:10;1.73;;;1.63;;
20000;SDS011;10161;41.188;-8.642;2022-10-16T08:06:37;2.13;;;1.40;;
20000;SDS011;10161;41.188;-8.642;2022-10-16T08:09:05;1.80;;;1.70;;
20000;SDS011;10161;41.188;-8.642;2022-10-16T08:11:32;2.00;;;1.70;;
20000;SDS011;10161;41.188;-8.642;2022-10-16T08:13:59;1.60;;;1.50;;
20000;SDS011;10161;41.188;-8.642;2022-10-16T08:16:28;1.40;;;1.30;;
20000;SDS011;10161;41.188;-8.642;2022-10-16T08:18:55;4.00;;;1.40;;
20000;SDS011;10161;41.188;-8.642;2022-10-16T08:21:22;1.73;;;1.60;;
20000;SDS011;10161;41.188;-8.642;2022-10-16T08:23:49;1.80;;;1.70;;
20000;SDS011;10161;41.188;-8.642;2022-10-16T08:26:17;2.20;;;1.30;;
20000;SDS011;10161;41.188;-8.642;2022-10-16T08:28:44;1.87;;;1.33;;
20000;SDS011;10161;41.188;-8.642;2022-10-16T08:31:12;1.87;;;1.43;;
20000;SDS011;10161;41.188;-8.642;2022-10-16T08:33:41;1.40;;;1.30;;
20000;SDS011;10161;41.188;-8.642;2022-10-16T08:36:10;2.30;;;1.50;;
20000;SDS011;10161;41.188;-8.642;2022-10-16T08:38:38;1.77;;;1.50;;
20000;SDS011;10161;41.188;-8.642;2022-10-16T08:41:13;1.20;;;1.10;;
20000;SDS011;10161;41.188;-8.642;2022-10-16T08:43:54;2.50;;;1.20;;
20000;SDS011;10161;41.188;-8.642;2022-10-16T08:46:43;1.37;;;1.27;;
20000;SDS011;10161;41.188;-8.642;2022-10-16T08:49:17;1.60;;;1.50;;
20000;SDS011;10161;41.188;-8.642;2022-10-16T08:51:44;1.60;;;1.50;;
20000;SDS011;10161;41.188;-8.642;2022-10-16T08:54:15;2.50;;;2.03;;
20000;SDS011;10161;41.188;-8.642;2022-10-16T08:56:49;3.73;;;2.97;;
20000;SDS011;10161;41.188;-8.642;2022-10-16T08:59:16;3.57;;;2.70;;
20000;SDS011;10161;41.188;-8.642;2022-10-16T09:01:44;3.07;;;1.83;;
20000;SDS011;10161;41.188;-8.642;2022-10-16T09:04:30;2.00;;;1.53;;
20000;SDS011;10161;41.188;-8.642;2022-10-16T09:07:14;2.77;;;2.17;;
20000;SDS011;10161;41.188;-8.642;2022-10-16T09:09:49;1.53;;;1.43;;
20000;SDS011;10161;41.188;-8.642;2022-10-16T09:12:24;2.17;;;1.50;;
20000;SDS011;10161;41.188;-8.642;2022-10-16T09:14:56;3.03;;;1.40;;
20000;SDS011;10161;41.188;-8.642;2022-10-16T09:17:34;3.03;;;1.50;;
20000;SDS011;10161;41.188;-8.642;2022-10-16T09:23:14;1.63;;;1.30;;
20000;SDS011;10161;41.188;-8.642;2022-10-16T09:25:43;4.53;;;1.70;;
20000;SDS011;10161;41.188;-8.642;2022-10-16T09:28:12;1.30;;;1.17;;
20000;SDS011;10161;41.188;-8.642;2022-10-16T09:30:39;1.93;;;1.40;;
20000;SDS011;10161;41.188;-8.642;2022-10-16T09:33:06;2.40;;;2.20;;
20000;SDS011;10161;41.188;-8.642;2022-10-16T09:35:37;3.93;;;1.80;;
20000;SDS011;10161;41.188;-8.642;2022-10-16T09:38:21;2.63;;;1.30;;
20000;SDS011;10161;41.188;-8.642;2022-10-16T09:40:48;1.83;;;1.30;;
20000;SDS011;10161;41.188;-8.642;2022-10-16T09:43:19;1.93;;;1.80;;
20000;SDS011;10161;41.188;-8.642;2022-10-16T09:45:54;2.10;;;1.90;;
20000;SDS011;10161;41.188;-8.642;2022-10-16T09:48:23;1.90;;;1.73;;
20000;SDS011;10161;41.188;-8.642;2022-10-16T09:50:57;1.77;;;1.50;;
20000;SDS011;10161;41.188;-8.642;2022-10-16T09:53:25;1.80;;;1.20;;
20000;SDS011;10161;41.188;-8.642;2022-10-16T09:55:53;1.97;;;1.50;;
20000;SDS011;10161;41.188;-8.642;2022-10-16T09:58:21;1.27;;;1.07;;
20000;SDS011;10161;41.188;-8.642;2022-10-16T10:00:49;1.77;;;1.47;;
20000;SDS011;10161;41.188;-8.642;2022-10-16T10:03:25;1.40;;;1.30;;
20000;SDS011;10161;41.188;-8.642;2022-10-16T10:06:01;2.07;;;1.10;;
20000;SDS011;10161;41.188;-8.642;2022-10-16T10:08:33;1.40;;;1.30;;
20000;SDS011;10161;41.188;-8.642;2022-10-16T10:11:00;1.43;;;1.20;;
20000;SDS011;10161;41.188;-8.642;2022-10-16T10:13:27;2.43;;;1.20;;
20000;SDS011;10161;41.188;-8.642;2022-10-16T10:15:54;2.53;;;1.40;;
20000;SDS011;10161;41.188;-8.642;2022-10-16T10:18:21;1.63;;;1.10;;
20000;SDS011;10161;41.188;-8.642;2022-10-16T10:20:56;1.40;;;1.07;;
20000;SDS011;10161;41.188;-8.642;2022-10-16T10:23:26;3.10;;;1.50;;
20000;SDS011;10161;41.188;-8.642;2022-10-16T10:25:56;1.20;;;1.10;;
20000;SDS011;10161;41.188;-8.642;2022-10-16T10:28:30;1.13;;;1.00;;
20000;SDS011;10161;41.188;-8.642;2022-10-16T10:31:10;2.10;;;1.93;;
20000;SDS011;10161;41.188;-8.642;2022-10-16T10:33:44;2.50;;;2.30;;
20000;SDS011;10161;41.188;-8.642;2022-10-16T10:39:01;2.00;;;1.40;;
20000;SDS011;10161;41.188;-8.642;2022-10-16T10:44:31;3.00;;;1.30;;
20000;SDS011;10161;41.188;-8.642;2022-10-16T10:47:06;1.23;;;1.13;;
20000;SDS011;10161;41.188;-8.642;2022-10-16T10:49:43;2.33;;;1.50;;
20000;SDS011;10161;41.188;-8.642;2022-10-16T10:52:23;1.40;;;1.30;;
20000;SDS011;10161;41.188;-8.642;2022-10-16T10:55:10;2.53;;;1.30;;
20000;SDS011;10161;41.188;-8.642;2022-10-16T10:57:45;2.50;;;1.40;;
20000;SDS011;10161;41.188;-8.642;2022-10-16T11:00:21;2.50;;;1.20;;
20000;SDS011;10161;41.188;-8.642;2022-10-16T11:02:50;3.00;;;1.50;;
20000;SDS011;10161;41.188;-8.642;2022-10-16T11:05:23;1.70;;;1.30;;
20000;SDS011;10161;41.188;-8.642;2022-10-16T11:07:57;2.10;;;1.33;;
20000;SDS011;10161;41.188;-8.642;2022-10-16T11:10:27;2.23;;;1.57;;
20000;SDS011;10161;41.188;-8.642;2022-10-16T11:12:57;4.77;;;1.27;;
20000;SDS011;10161;41.188;-8.642;2022-10-16T11:15:28;1.67;;;1.10;;
20000;SDS011;10161;41.188;-8.642;2022-10-16T11:18:03;2.80;;;1.40;;
20000;SDS011;10161;41.188;-8.642;2022-10-16T11:20:34;1.60;;;1.20;;
20000;SDS011;10161;41.188;-8.642;2022-10-16T11:23:05;1.80;;;1.70;;
20000;SDS011;10161;41.188;-8.642;2022-10-16T11:25:38;2.17;;;1.80;;
20000;SDS011;10161;41.188;-8.642;2022-10-16T11:28:07;2.30;;;1.83;;
20000;SDS011;10161;41.188;-8.642;2022-10-16T11:30:39;9.60;;;2.57;;
20000;SDS011;10161;41.188;-8.642;2022-10-16T11:33:12;5.03;;;3.17;;
20000;SDS011;10161;41.188;-8.642;2022-10-16T11:35:52;2.20;;;1.97;;
20000;SDS011;10161;41.188;-8.642;2022-10-16T11:38:21;3.60;;;2.50;;
20000;SDS011;10161;41.188;-8.642;2022-10-16T11:40:54;4.37;;;2.73;;
20000;SDS011;10161;41.188;-8.642;2022-10-16T11:43:25;3.30;;;2.20;;
20000;SDS011;10161;41.188;-8.642;2022-10-16T11:45:56;4.73;;;3.60;;
20000;SDS011;10161;41.188;-8.642;2022-10-16T11:48:27;3.67;;;3.07;;
20000;SDS011;10161;41.188;-8.642;2022-10-16T11:50:59;2.37;;;2.17;;
20000;SDS011;10161;41.188;-8.642;2022-10-16T11:53:34;1.70;;;1.60;;
20000;SDS011;10161;41.188;-8.642;2022-10-16T11:56:07;4.57;;;2.27;;
20000;SDS011;10161;41.188;-8.642;2022-10-16T11:58:35;1.47;;;1.23;;
20000;SDS011;10161;41.188;-8.642;2022-10-16T12:01:12;1.70;;;1.60;;
20000;SDS011;10161;41.188;-8.642;2022-10-16T12:03:45;3.63;;;1.70;;
20000;SDS011;10161;41.188;-8.642;2022-10-16T12:06:18;1.73;;;1.30;;
20000;SDS011;10161;41.188;-8.642;2022-10-16T12:08:54;2.20;;;1.77;;
20000;SDS011;10161;41.188;-8.642;2022-10-16T12:11:32;2.30;;;1.50;;
20000;SDS011;10161;41.188;-8.642;2022-10-16T12:14:18;2.73;;;2.20;;
20000;SDS011;10161;41.188;-8.642;2022-10-16T12:16:53;3.33;;;1.83;;
20000;SDS011;10161;41.188;-8.642;2022-10-16T12:19:21;2.60;;;1.70;;
20000;SDS011;10161;41.188;-8.642;2022-10-16T12:21:49;1.67;;;1.47;;
20000;SDS011;10161;41.188;-8.642;2022-10-16T12:24:31;3.13;;;1.50;;
20000;SDS011;10161;41.188;-8.642;2022-10-16T12:27:01;5.43;;;2.03;;
20000;SDS011;10161;41.188;-8.642;2022-10-16T12:29:33;6.50;;;2.90;;
20000;SDS011;10161;41.188;-8.642;2022-10-16T12:32:03;8.40;;;3.30;;
20000;SDS011;10161;41.188;-8.642;2022-10-16T12:34:34;7.60;;;3.10;;
20000;SDS011;10161;41.188;-8.642;2022-10-16T12:37:08;9.87;;;3.70;;
20000;SDS011;10161;41.188;-8.642;2022-10-16T12:39:47;7.50;;;4.10;;
20000;SDS011;10161;41.188;-8.642;2022-10-16T12:42:23;8.60;;;4.03;;
20000;SDS011;10161;41.188;-8.642;2022-10-16T12:44:58;9.50;;;4.93;;
20000;SDS011;10161;41.188;-8.642;2022-10-16T12:47:35;9.90;;;5.30;;
20000;SDS011;10161;41.188;-8.642;2022-10-16T12:50:21;6.90;;;4.60;;
20000;SDS011;10161;41.188;-8.642;2022-10-16T12:52:51;10.70;;;4.10;;
20000;SDS011;10161;41.188;-8.642;2022-10-16T12:55:20;11.20;;;4.07;;
20000;SDS011;10161;41.188;-8.642;2022-10-16T12:57:56;8.70;;;4.00;;
20000;SDS011;10161;41.188;-8.642;2022-10-16T13:00:33;11.87;;;4.67;;
20000;SDS011;10161;41.188;-8.642;2022-10-16T13:03:17;17.70;;;5.10;;
20000;SDS011;10161;41.188;-8.642;2022-10-16T13:05:55;13.33;;;5.73;;
20000;SDS011;10161;41.188;-8.642;2022-10-16T13:08:35;9.80;;;5.07;;
20000;SDS011;10161;41.188;-8.642;2022-10-16T13:11:14;14.30;;;5.93;;
20000;SDS011;10161;41.188;-8.642;2022-10-16T13:14:01;17.90;;;6.50;;
20000;SDS011;10161;41.188;-8.642;2022-10-16T13:16:40;12.37;;;5.03;;
20000;SDS011;10161;41.188;-8.642;2022-10-16T13:19:18;18.73;;;6.30;;
20000;SDS011;10161;41.188;-8.642;2022-10-16T13:21:49;15.37;;;5.17;;
20000;SDS011;10161;41.188;-8.642;2022-10-16T13:24:25;17.33;;;8.50;;
20000;SDS011;10161;41.188;-8.642;2022-10-16T13:27:04;8.90;;;4.87;;
20000;SDS011;10161;41.188;-8.642;2022-10-16T13:29:36;11.87;;;4.20;;
20000;SDS011;10161;41.188;-8.642;2022-10-16T13:32:07;14.83;;;5.10;;
20000;SDS011;10161;41.188;-8.642;2022-10-16T13:34:43;14.90;;;3.50;;
20000;SDS011;10161;41.188;-8.642;2022-10-16T13:37:16;11.17;;;3.70;;
20000;SDS011;10161;41.188;-8.642;2022-10-16T13:39:44;9.60;;;3.70;;
20000;SDS011;10161;41.188;-8.642;2022-10-16T13:42:12;11.77;;;4.00;;
20000;SDS011;10161;41.188;-8.642;2022-10-16T13:44:43;13.77;;;8.00;;
20000;SDS011;10161;41.188;-8.642;2022-10-16T13:47:15;16.23;;;7.50;;
20000;SDS011;10161;41.188;-8.642;2022-10-16T13:49:43;12.93;;;5.50;;
20000;SDS011;10161;41.188;-8.642;2022-10-16T13:52:15;11.00;;;4.53;;
20000;SDS011;10161;41.188;-8.642;2022-10-16T13:54:43;10.10;;;3.90;;
20000;SDS011;10161;41.188;-8.642;2022-10-16T13:57:11;8.57;;;4.10;;
20000;SDS011;10161;41.188;-8.642;2022-10-16T13:59:39;11.97;;;4.70;;
20000;SDS011;10161;41.188;-8.642;2022-10-16T14:02:24;13.37;;;4.40;;
20000;SDS011;10161;41.188;-8.642;2022-10-16T14:04:52;8.23;;;3.90;;
20000;SDS011;10161;41.188;-8.642;2022-10-16T14:07:21;10.77;;;3.37;;
20000;SDS011;10161;41.188;-8.642;2022-10-16T14:09:51;7.47;;;3.27;;
20000;SDS011;10161;41.188;-8.642;2022-10-16T14:12:18;12.10;;;3.40;;
20000;SDS011;10161;41.188;-8.642;2022-10-16T14:14:46;7.53;;;3.70;;
20000;SDS011;10161;41.188;-8.642;2022-10-16T14:17:18;10.67;;;3.03;;
20000;SDS011;10161;41.188;-8.642;2022-10-16T14:19:45;9.60;;;3.57;;
20000;SDS011;10161;41.188;-8.642;2022-10-16T14:22:21;10.47;;;3.70;;
20000;SDS011;10161;41.188;-8.642;2022-10-16T14:24:52;11.57;;;3.93;;
20000;SDS011;10161;41.188;-8.642;2022-10-16T14:27:28;11.67;;;4.17;;
20000;SDS011;10161;41.188;-8.642;2022-10-16T14:30:09;13.20;;;4.00;;
20000;SDS011;10161;41.188;-8.642;2022-10-16T14:32:41;8.13;;;3.50;;
20000;SDS011;10161;41.188;-8.642;2022-10-16T14:35:23;12.30;;;4.00;;
20000;SDS011;10161;41.188;-8.642;2022-10-16T14:37:51;15.27;;;5.20;;
20000;SDS011;10161;41.188;-8.642;2022-10-16T14:40:19;18.63;;;8.30;;
20000;SDS011;10161;41.188;-8.642;2022-10-16T14:42:47;19.93;;;8.13;;
20000;SDS011;10161;41.188;-8.642;2022-10-16T14:45:15;21.90;;;7.50;;
20000;SDS011;10161;41.188;-8.642;2022-10-16T14:47:49;15.70;;;7.47;;
20000;SDS011;10161;41.188;-8.642;2022-10-16T14:50:17;26.53;;;9.70;;
20000;SDS011;10161;41.188;-8.642;2022-10-16T14:52:44;20.90;;;9.00;;
20000;SDS011;10161;41.188;-8.642;2022-10-16T14:55:11;17.43;;;6.30;;
20000;SDS011;10161;41.188;-8.642;2022-10-16T14:57:38;10.50;;;4.53;;
20000;SDS011;10161;41.188;-8.642;2022-10-16T15:00:09;12.80;;;5.37;;
20000;SDS011;10161;41.188;-8.642;2022-10-16T15:02:41;13.50;;;5.10;;